Terminal Aerodrome Forecast
Issued by NWS Cleveland, OH

Home | Current Version | Previous Version | Text Only | Print | Product List | Glossary On
Versions: 1 2 3 4 5 6 7 8 9 10 11 12 13 14
000
FTUS41 KCLE 270500 RRA
TAFYNG
TAF
KYNG 270541Z 2706/2806 31004KT P6SM BKN040
     FM271000 29004KT P6SM BKN035 OVC050
     FM271300 31008KT P6SM -SHRA SCT015 OVC025
     FM271800 33010G20KT P6SM OVC025
     FM272200 33008KT P6SM BKN035 OVC050=

USA.gov is the U.S. government's official web portal to all federal, state and local government web resources and services.